Time;durP1;ratioP1;P1;durP2;ratioP2;P2;SDS_P1;SDS_P2;PMS_P1;PMS_P2;Temp;Humidity;BMP_temperature;BMP_pressure;BME280_temperature;BME280_humidity;BME280_pressure;Samples;Min_cycle;Max_cycle;Signal;HPM_P1;HPM_P2
2023/11/01 00:04:38;;;;;;;3.17;1.40;;;;;;;11.70;66.28;99076.75;10432639;28;20068;-65
2023/11/01 00:09:40;;;;;;;5.93;1.40;;;;;;;11.76;66.45;99077.09;10432594;28;20049;-64
2023/11/01 00:14:42;;;;;;;3.08;1.25;;;;;;;11.78;66.46;99076.97;10431669;28;20095;-65
2023/11/01 00:19:44;;;;;;;3.72;1.50;;;;;;;11.84;66.41;99073.88;10432835;28;20060;-64
2023/11/01 00:24:47;;;;;;;3.75;1.75;;;;;;;11.81;66.32;99066.25;10431804;28;20076;-65
2023/11/01 00:29:49;;;;;;;12.15;2.40;;;;;;;11.85;66.32;99073.75;10430819;28;20114;-64
2023/11/01 00:34:51;;;;;;;1.35;1.00;;;;;;;11.84;66.42;99068.63;10415908;28;20139;-65
2023/11/01 00:39:54;;;;;;;2.35;1.38;;;;;;;11.80;66.41;99067.22;10423454;28;20049;-65
2023/11/01 00:44:56;;;;;;;2.10;1.20;;;;;;;11.63;66.68;99070.28;10430937;28;20057;-64
2023/11/01 00:49:58;;;;;;;6.22;2.00;;;;;;;11.70;66.77;99068.88;10431382;28;20059;-64
2023/11/01 00:55:00;;;;;;;3.42;1.30;;;;;;;11.72;66.59;99072.22;10431833;28;20049;-65
2023/11/01 01:00:02;;;;;;;1.20;1.00;;;;;;;11.59;66.96;99068.88;10430618;28;20053;-65
2023/11/01 01:05:05;;;;;;;2.85;1.58;;;;;;;11.64;66.93;99066.75;10430286;28;20171;-64
2023/11/01 01:10:07;;;;;;;4.20;1.38;;;;;;;11.59;66.86;99053.16;10432921;28;20126;-65
2023/11/01 01:15:11;;;;;;;2.38;1.20;;;;;;;11.62;66.93;99052.94;10413161;28;20056;-64
2023/11/01 01:20:13;;;;;;;2.70;1.20;;;;;;;11.53;67.06;99053.63;10431093;28;20447;-63
2023/11/01 01:25:15;;;;;;;4.55;2.20;;;;;;;11.33;67.40;99057.78;10430732;28;20651;-63
2023/11/01 01:30:17;;;;;;;2.92;1.60;;;;;;;11.23;67.75;99043.75;10429851;28;20060;-63
2023/11/01 01:35:19;;;;;;;4.03;1.50;;;;;;;11.32;67.71;99032.56;10430486;28;20412;-63
2023/11/01 01:40:21;;;;;;;2.40;1.70;;;;;;;11.36;67.59;99023.50;10437638;28;20045;-63
2023/11/01 01:45:23;;;;;;;5.63;1.50;;;;;;;11.50;67.58;99018.03;10437424;28;20107;-63
2023/11/01 01:50:25;;;;;;;2.63;1.52;;;;;;;11.61;67.36;99014.59;10433218;28;20367;-63
2023/11/01 01:55:28;;;;;;;3.97;1.63;;;;;;;11.62;67.00;99005.78;10433756;28;20045;-63
2023/11/01 02:00:32;;;;;;;5.38;1.73;;;;;;;11.62;67.15;99011.03;10436524;28;20132;-63
2023/11/01 02:05:34;;;;;;;4.30;2.00;;;;;;;11.46;67.23;98992.22;10436935;28;20051;-63
2023/11/01 02:10:37;;;;;;;3.60;1.58;;;;;;;11.47;67.48;98986.88;10434978;28;20137;-62
2023/11/01 02:15:41;;;;;;;2.25;1.58;;;;;;;11.49;67.50;98984.13;10435666;28;20059;-63
2023/11/01 02:20:45;;;;;;;4.05;1.75;;;;;;;11.43;67.53;98980.22;10420781;28;20303;-64
2023/11/01 02:25:47;;;;;;;2.83;1.50;;;;;;;11.44;67.57;98966.16;10434469;28;20443;-64
2023/11/01 02:30:50;;;;;;;2.88;1.40;;;;;;;11.51;67.52;98959.50;10434263;28;20408;-64
2023/11/01 02:35:52;;;;;;;2.28;1.30;;;;;;;11.60;67.59;98948.28;10435260;28;20519;-64
2023/11/01 02:40:54;;;;;;;4.40;2.17;;;;;;;11.60;67.25;98939.59;10434831;28;20463;-64
2023/11/01 02:45:56;;;;;;;3.28;1.70;;;;;;;11.40;67.53;98932.50;10434329;28;20124;-64
2023/11/01 02:50:58;;;;;;;3.80;1.45;;;;;;;11.44;67.65;98933.91;10433996;28;20049;-64
2023/11/01 02:56:00;;;;;;;2.90;1.50;;;;;;;11.48;67.83;98924.88;10436003;28;20118;-64
2023/11/01 03:01:03;;;;;;;2.65;1.67;;;;;;;11.59;67.62;98930.91;10432321;28;20041;-64
2023/11/01 03:06:05;;;;;;;4.70;1.98;;;;;;;11.56;67.54;98930.34;10433808;28;20469;-64
2023/11/01 03:11:07;;;;;;;3.72;1.95;;;;;;;11.42;67.78;98922.75;10433507;28;20110;-64
2023/11/01 03:16:09;;;;;;;2.60;1.50;;;;;;;11.44;68.03;98920.84;10436217;28;20122;-64
2023/11/01 03:21:11;;;;;;;2.67;1.67;;;;;;;11.34;68.43;98912.84;10417947;28;20303;-64
2023/11/01 03:26:13;;;;;;;3.60;1.38;;;;;;;11.34;68.24;98917.28;10433433;28;20099;-64
2023/11/01 03:31:18;;;;;;;3.65;1.50;;;;;;;11.38;68.29;98910.84;10432984;28;20053;-64
2023/11/01 03:36:21;;;;;;;1.85;1.20;;;;;;;11.50;68.18;98917.72;10434722;28;20452;-64
2023/11/01 03:41:23;;;;;;;1.52;1.00;;;;;;;11.60;68.08;98903.75;10424772;28;20045;-64
2023/11/01 03:46:25;;;;;;;2.08;1.30;;;;;;;11.52;68.09;98897.50;10433371;28;20056;-64
2023/11/01 03:51:28;;;;;;;4.53;1.70;;;;;;;11.60;68.35;98897.72;10425812;28;20143;-64
2023/11/01 03:56:30;;;;;;;4.43;1.50;;;;;;;11.72;68.01;98881.00;10433979;28;20409;-64
2023/11/01 04:01:31;;;;;;;3.33;1.88;;;;;;;11.69;68.17;98891.72;10431692;28;20099;-64
2023/11/01 04:06:34;;;;;;;4.40;2.35;;;;;;;11.63;68.34;98881.72;10431754;28;20139;-64
2023/11/01 04:11:36;;;;;;;3.42;1.50;;;;;;;11.53;68.42;98876.41;10430206;28;20130;-64
2023/11/01 04:16:38;;;;;;;3.30;1.85;;;;;;;11.54;68.50;98875.44;10431942;28;20090;-64
2023/11/01 04:21:40;;;;;;;2.92;1.50;;;;;;;11.52;68.53;98868.69;10431425;28;20401;-64
2023/11/01 04:26:42;;;;;;;3.85;1.83;;;;;;;11.62;68.41;98875.66;10432490;28;20049;-64
2023/11/01 04:31:44;;;;;;;3.42;1.60;;;;;;;11.69;68.43;98873.38;10430871;28;20225;-64
2023/11/01 04:36:47;;;;;;;6.88;1.98;;;;;;;11.63;68.21;98874.72;10431537;28;20043;-64
2023/11/01 04:41:49;;;;;;;2.53;1.42;;;;;;;11.50;68.36;98875.84;10433647;28;20045;-65
2023/11/01 04:46:51;;;;;;;2.20;1.17;;;;;;;11.51;68.68;98861.78;10431245;28;20045;-65
2023/11/01 04:51:53;;;;;;;5.38;1.20;;;;;;;11.52;68.66;98852.97;10429479;28;20503;-64
2023/11/01 04:56:55;;;;;;;1.90;1.20;;;;;;;11.65;68.46;98851.00;10431956;28;20126;-65
2023/11/01 05:01:58;;;;;;;2.38;1.30;;;;;;;11.70;68.53;98843.63;10429522;28;20612;-64
2023/11/01 05:07:00;;;;;;;3.63;1.05;;;;;;;11.67;68.69;98849.94;10431873;28;20124;-65
2023/11/01 05:12:03;;;;;;;3.35;1.08;;;;;;;11.67;68.54;98846.47;10432329;28;20053;-64
2023/11/01 05:17:05;;;;;;;2.03;1.20;;;;;;;11.48;68.92;98841.09;10439103;28;20059;-65
2023/11/01 05:22:07;;;;;;;5.30;1.50;;;;;;;11.35;69.43;98837.78;10438136;28;20041;-64
2023/11/01 05:27:09;;;;;;;2.85;1.23;;;;;;;11.35;69.36;98838.63;10438855;28;20381;-65
2023/11/01 05:32:11;;;;;;;2.33;1.42;;;;;;;11.38;69.44;98825.28;10436410;28;20060;-64
2023/11/01 05:37:13;;;;;;;1.67;1.30;;;;;;;11.46;69.08;98825.47;10437940;28;20037;-64
2023/11/01 05:42:15;;;;;;;2.22;1.30;;;;;;;11.66;69.01;98829.13;10438584;28;20227;-64
2023/11/01 05:47:17;;;;;;;4.07;1.60;;;;;;;11.69;68.76;98834.09;10435462;28;20766;-64
2023/11/01 05:52:20;;;;;;;1.58;1.17;;;;;;;11.62;68.88;98827.72;10437966;28;20048;-64
2023/11/01 05:57:22;;;;;;;1.67;1.05;;;;;;;11.58;68.90;98826.28;10438173;28;20056;-64
2023/11/01 06:02:24;;;;;;;1.85;1.25;;;;;;;11.48;68.89;98825.38;10435447;28;20033;-64
2023/11/01 06:07:27;;;;;;;3.70;1.10;;;;;;;11.57;68.71;98829.84;10436666;28;20045;-64
2023/11/01 06:12:29;;;;;;;6.53;2.63;;;;;;;11.43;68.86;98824.91;10430264;28;20111;-64
2023/11/01 06:17:31;;;;;;;2.70;1.38;;;;;;;11.35;69.08;98829.94;10429965;28;20056;-64
2023/11/01 06:22:33;;;;;;;1.77;1.20;;;;;;;11.45;69.39;98843.94;10434161;28;20552;-64
2023/11/01 06:27:35;;;;;;;3.45;1.20;;;;;;;11.62;68.86;98846.84;10432311;28;20060;-64
2023/11/01 06:32:37;;;;;;;4.28;1.55;;;;;;;11.63;68.88;98845.91;10429174;28;20419;-63
2023/11/01 06:37:40;;;;;;;1.92;1.30;;;;;;;11.78;68.84;98847.28;10436177;28;20115;-64
2023/11/01 06:42:42;;;;;;;1.92;1.30;;;;;;;11.91;68.52;98850.56;10430478;28;20041;-64
2023/11/01 06:47:44;;;;;;;2.60;1.75;;;;;;;11.97;68.38;98850.03;10425481;28;20052;-64
2023/11/01 06:52:46;;;;;;;2.25;1.70;;;;;;;12.00;67.99;98849.81;10430122;28;20612;-63
2023/11/01 06:57:49;;;;;;;2.80;1.60;;;;;;;11.87;68.38;98851.75;10436690;28;20045;-65
2023/11/01 07:02:51;;;;;;;1.70;1.40;;;;;;;12.00;68.42;98844.56;10424357;28;20356;-65
2023/11/01 07:07:56;;;;;;;2.15;1.48;;;;;;;12.10;68.13;98850.72;10429886;28;20037;-64
2023/11/01 07:12:58;;;;;;;2.35;1.30;;;;;;;12.19;68.17;98858.75;10434538;28;20306;-65
2023/11/01 07:18:01;;;;;;;3.17;1.77;;;;;;;12.23;68.02;98860.16;10425036;28;20047;-64
2023/11/01 07:23:03;;;;;;;4.45;1.77;;;;;;;12.30;68.00;98859.56;10430129;28;20037;-65
2023/11/01 07:28:05;;;;;;;4.28;1.92;;;;;;;12.31;67.72;98856.00;10426649;28;20056;-65
2023/11/01 07:33:07;;;;;;;7.07;3.00;;;;;;;12.39;67.95;98847.47;10426616;28;20063;-65
2023/11/01 07:38:10;;;;;;;64.05;16.27;;;;;;;12.54;67.69;98846.16;10415127;28;20041;-69
2023/11/01 07:43:11;;;;;;;38.00;7.95;;;;;;;12.49;67.40;98838.72;10424661;28;20040;-68
2023/11/01 07:48:14;;;;;;;35.72;7.18;;;;;;;12.48;67.41;98838.81;10411183;28;20654;-67
2023/11/01 07:56:42;;;;;;;45.00;10.07;;;;;;;12.27;68.21;98854.56;10548612;27;20550;-67
2023/11/01 08:01:44;;;;;;;21.40;5.45;;;;;;;12.25;68.55;98848.59;10531347;28;20381;-68
2023/11/01 08:06:46;;;;;;;3.88;2.10;;;;;;;12.41;68.27;98842.94;10546145;28;20094;-67
2023/11/01 08:11:48;;;;;;;3.10;1.60;;;;;;;12.52;68.00;98835.81;10539096;28;20048;-67
2023/11/01 08:16:51;;;;;;;1.83;1.02;;;;;;;12.64;68.06;98833.97;10542145;28;20100;-67
2023/11/01 08:21:53;;;;;;;6.35;2.03;;;;;;;12.90;67.81;98830.72;10539062;28;20043;-68
2023/11/01 08:26:55;;;;;;;3.13;1.67;;;;;;;12.94;67.68;98831.31;10539601;28;20055;-66
2023/11/01 08:31:57;;;;;;;2.35;1.42;;;;;;;13.04;67.61;98821.66;10539571;28;20056;-68
2023/11/01 08:37:00;;;;;;;3.58;1.40;;;;;;;13.07;67.57;98815.34;10535226;28;20403;-67
2023/11/01 08:42:02;;;;;;;2.47;1.42;;;;;;;13.21;67.61;98817.56;10534817;28;20403;-67
2023/11/01 08:47:42;;;;;;;;;;;;;;;13.28;67.94;98824.78;10542867;28;20047;-67
2023/11/01 08:52:45;;;;;;;2.78;1.70;;;;;;;13.71;67.01;98817.38;10545503;28;19934;-67
2023/11/01 08:57:47;;;;;;;2.17;1.58;;;;;;;13.91;66.79;98812.94;10545657;28;20032;-67
2023/11/01 09:02:49;;;;;;;2.25;1.48;;;;;;;14.12;66.53;98818.88;10541914;28;20089;-67
2023/11/01 09:07:51;;;;;;;6.50;2.35;;;;;;;14.37;65.82;98822.72;10517813;28;20119;-67
2023/11/01 09:12:53;;;;;;;4.18;1.30;;;;;;;14.63;65.64;98815.88;10513836;28;20920;-67
2023/11/01 09:17:55;;;;;;;2.75;1.42;;;;;;;14.91;65.71;98812.28;10498973;28;20412;-68
2023/11/01 09:22:58;;;;;;;3.33;1.42;;;;;;;14.97;63.15;98801.19;10514491;28;20055;-67
2023/11/01 09:28:01;;;;;;;2.53;1.30;;;;;;;14.99;64.74;98801.03;10517447;28;20054;-67
2023/11/01 09:33:03;;;;;;;3.17;1.23;;;;;;;15.16;64.73;98802.88;10516901;28;20040;-67
2023/11/01 09:38:05;;;;;;;2.67;1.13;;;;;;;14.98;63.56;98805.44;10514034;28;20517;-67
2023/11/01 09:43:09;;;;;;;1.55;1.33;;;;;;;15.04;63.43;98804.06;10504704;28;20048;-67
2023/11/01 09:48:12;;;;;;;4.90;1.27;;;;;;;15.05;63.48;98803.06;10504881;28;20070;-67
2023/11/01 09:53:16;;;;;;;2.08;0.95;;;;;;;14.93;62.67;98796.34;10512353;28;20051;-67
2023/11/01 09:58:20;;;;;;;1.73;1.30;;;;;;;15.05;62.59;98803.06;10505447;28;20039;-67
2023/11/01 10:03:23;;;;;;;4.40;2.00;;;;;;;15.06;62.31;98816.06;10512846;28;20549;-67
2023/11/01 10:08:25;;;;;;;4.30;1.60;;;;;;;15.10;62.59;98814.81;10512551;28;20487;-67
2023/11/01 10:18:05;;;;;;;7.07;1.35;;;;;;;14.78;62.87;98800.44;10546275;27;20138;-67
2023/11/01 10:23:07;;;;;;;7.00;1.65;;;;;;;15.14;62.13;98810.09;10512364;28;20051;-68
2023/11/01 10:28:13;;;;;;;4.65;1.50;;;;;;;15.20;61.51;98809.50;10509462;28;20060;-67
2023/11/01 10:33:18;;;;;;;1.60;1.00;;;;;;;15.14;61.88;98800.38;10509442;28;20442;-68
2023/11/01 10:38:21;;;;;;;3.72;1.30;;;;;;;15.02;62.12;98800.75;10512369;28;20055;-67
2023/11/01 10:43:27;;;;;;;3.13;1.15;;;;;;;14.82;61.61;98791.28;10523781;27;20428;-67
2023/11/01 10:48:29;;;;;;;3.65;1.50;;;;;;;14.67;61.61;98784.84;10510015;28;20040;-67
2023/11/01 10:53:35;;;;;;;3.15;1.27;;;;;;;14.69;61.61;98777.63;10509025;28;20043;-68
2023/11/01 10:58:43;;;;;;;5.07;2.15;;;;;;;14.84;60.26;98763.00;10512310;28;20048;-67
2023/11/01 11:04:12;;;;;;;2.78;1.20;;;;;;;14.65;59.90;98749.94;10514767;28;20135;-67
2023/11/01 11:09:21;;;;;;;2.85;1.23;;;;;;;14.83;60.68;98733.22;10511213;28;21184;-68
2023/11/01 11:14:41;;;;;;;2.97;1.48;;;;;;;14.76;59.73;98724.25;10511214;28;20083;-67
2023/11/01 11:20:06;;;;;;;2.67;1.20;;;;;;;14.72;59.01;98724.69;10512253;28;20050;-68
2023/11/01 11:25:09;;;;;;;2.65;1.10;;;;;;;14.90;59.83;98710.59;10504670;28;20080;-68
2023/11/01 11:30:16;;;;;;;3.38;1.70;;;;;;;14.66;60.29;98705.06;10481607;28;20048;-68
2023/11/01 11:35:24;;;;;;;3.17;1.10;;;;;;;14.88;59.92;98688.03;10466094;28;20131;-68
2023/11/01 11:40:28;;;;;;;2.20;1.00;;;;;;;15.00;59.48;98682.38;10463290;28;20496;-68
2023/11/01 11:45:30;;;;;;;2.70;1.10;;;;;;;15.19;58.93;98671.72;10480097;28;20048;-68
2023/11/01 11:50:32;;;;;;;3.13;1.30;;;;;;;15.05;59.19;98658.25;10480096;28;20533;-68
2023/11/01 11:55:43;;;;;;;3.92;1.90;;;;;;;14.91;58.58;98646.44;10480053;28;20147;-68
2023/11/01 12:00:46;;;;;;;6.93;1.92;;;;;;;14.85;59.79;98651.47;10479590;28;20683;-68
2023/11/01 12:05:56;;;;;;;1.15;0.90;;;;;;;14.91;59.58;98645.59;10476291;28;20052;-67
2023/11/01 12:11:05;;;;;;;7.00;1.27;;;;;;;14.94;59.46;98643.50;10463169;28;20241;-68
2023/11/01 12:16:11;;;;;;;4.22;1.48;;;;;;;14.97;58.81;98634.47;10479755;28;20437;-67
2023/11/01 12:21:15;;;;;;;2.63;0.80;;;;;;;15.19;59.15;98624.31;10483392;28;20449;-67
2023/11/01 12:26:19;;;;;;;1.75;0.90;;;;;;;15.24;58.61;98623.88;10480799;28;20071;-67
2023/11/01 12:31:21;;;;;;;1.92;0.95;;;;;;;15.32;58.39;98611.59;10477347;28;20044;-67
2023/11/01 12:36:30;;;;;;;5.75;1.75;;;;;;;15.45;57.34;98603.25;10478314;28;20051;-67
2023/11/01 12:41:33;;;;;;;3.83;1.10;;;;;;;15.41;57.37;98583.47;10474169;28;21068;-67
2023/11/01 12:46:37;;;;;;;4.60;1.50;;;;;;;15.64;57.28;98576.75;10481047;28;20075;-67
2023/11/01 12:51:40;;;;;;;5.68;2.63;;;;;;;15.73;56.57;98580.25;10489136;28;20067;-67
2023/11/01 12:56:43;;;;;;;3.55;1.73;;;;;;;15.77;56.52;98576.31;10476876;28;20059;-67
2023/11/01 13:01:45;;;;;;;6.40;2.00;;;;;;;15.81;56.66;98567.13;10476892;28;20052;-67
2023/11/01 13:06:50;;;;;;;7.40;1.30;;;;;;;15.73;55.96;98553.91;10477111;28;20047;-66
2023/11/01 13:11:53;;;;;;;6.80;1.15;;;;;;;15.62;56.40;98560.25;10478615;28;20476;-67
2023/11/01 13:16:56;;;;;;;3.13;1.00;;;;;;;15.56;56.08;98563.53;10479024;28;20072;-67
2023/11/01 13:21:58;;;;;;;2.00;1.20;;;;;;;15.48;56.16;98552.06;10479306;28;20054;-67
2023/11/01 13:27:08;;;;;;;2.92;1.08;;;;;;;15.39;56.35;98545.91;10483935;28;20059;-67
2023/11/01 13:32:11;;;;;;;1.55;1.02;;;;;;;15.39;56.55;98538.84;10478789;28;20036;-67
2023/11/01 13:37:14;;;;;;;3.17;0.80;;;;;;;15.10;55.54;98519.88;10457712;28;20052;-67
2023/11/01 13:42:17;;;;;;;2.17;1.20;;;;;;;15.02;56.54;98513.75;10458504;28;20049;-67
2023/11/01 13:47:19;;;;;;;4.70;1.63;;;;;;;15.02;56.73;98517.19;10482808;28;20143;-66
2023/11/01 13:52:25;;;;;;;3.47;0.70;;;;;;;15.04;56.58;98509.16;10477426;28;20043;-67
2023/11/01 13:57:27;;;;;;;3.28;1.05;;;;;;;14.84;57.00;98512.97;10477175;28;20048;-67
2023/11/01 14:02:31;;;;;;;1.17;0.90;;;;;;;14.68;57.25;98497.84;10461797;28;20049;-67
2023/11/01 14:07:33;;;;;;;9.60;2.08;;;;;;;14.51;57.32;98494.25;10476194;28;20098;-67
2023/11/01 14:12:36;;;;;;;4.47;1.08;;;;;;;14.47;57.55;98474.44;10475019;28;20047;-67
2023/11/01 14:17:38;;;;;;;2.78;1.13;;;;;;;14.39;57.90;98466.47;10477116;28;20055;-68
2023/11/01 14:22:41;;;;;;;2.60;1.00;;;;;;;14.38;58.08;98464.84;10475788;28;20045;-67
2023/11/01 14:27:44;;;;;;;1.83;0.70;;;;;;;14.35;58.05;98456.44;10473348;28;20052;-68
2023/11/01 14:32:47;;;;;;;1.50;0.80;;;;;;;14.43;57.78;98446.78;10475022;28;20048;-67
2023/11/01 14:37:49;;;;;;;1.35;0.90;;;;;;;14.36;58.03;98447.56;10478566;28;20045;-68
2023/11/01 14:42:51;;;;;;;1.48;1.13;;;;;;;14.29;58.13;98449.97;10492734;28;20040;-67
2023/11/01 14:47:55;;;;;;;3.53;1.17;;;;;;;14.29;57.95;98449.13;10470787;28;20044;-67
2023/11/01 14:52:58;;;;;;;2.10;1.35;;;;;;;14.29;58.16;98444.69;10472646;28;20054;-68
2023/11/01 14:58:00;;;;;;;3.17;1.05;;;;;;;14.27;58.30;98433.50;10474528;28;20055;-68
2023/11/01 15:03:21;;;;;;;3.17;1.20;;;;;;;14.23;58.48;98444.47;10478831;28;20052;-68
2023/11/01 15:08:23;;;;;;;1.00;0.88;;;;;;;14.01;58.77;98445.75;10488200;28;20056;-68
2023/11/01 15:13:25;;;;;;;1.58;0.73;;;;;;;13.97;58.62;98438.31;10481466;28;20061;-68
2023/11/01 15:18:27;;;;;;;1.20;1.10;;;;;;;13.95;58.69;98438.47;10479993;28;20138;-69
2023/11/01 15:23:31;;;;;;;0.95;0.68;;;;;;;13.97;58.66;98438.31;10483110;28;20131;-69
2023/11/01 15:28:34;;;;;;;2.70;1.10;;;;;;;13.87;58.90;98438.38;10480013;28;20629;-69
2023/11/01 15:33:36;;;;;;;2.63;1.00;;;;;;;13.88;58.61;98444.47;10479928;28;20500;-69
2023/11/01 15:38:39;;;;;;;3.33;0.93;;;;;;;13.84;58.87;98443.91;10480574;28;20048;-69
2023/11/01 15:43:42;;;;;;;6.43;1.60;;;;;;;13.81;58.98;98444.22;10481225;28;20044;-69
2023/11/01 15:48:44;;;;;;;1.98;1.38;;;;;;;13.73;59.38;98437.09;10480584;28;20052;-69
2023/11/01 15:53:47;;;;;;;5.38;1.10;;;;;;;13.64;59.67;98424.00;10478578;28;20051;-69
2023/11/01 15:58:50;;;;;;;0.93;0.70;;;;;;;13.42;60.01;98419.97;10479318;28;20067;-69
2023/11/01 16:03:52;;;;;;;2.80;1.02;;;;;;;13.40;59.89;98413.16;10479969;28;20134;-69
2023/11/01 16:08:54;;;;;;;5.88;1.17;;;;;;;13.39;60.20;98412.34;10477897;28;20047;-69
2023/11/01 16:13:57;;;;;;;1.45;0.88;;;;;;;13.39;60.23;98422.84;10462248;28;20530;-69
2023/11/01 16:18:59;;;;;;;1.98;1.10;;;;;;;13.35;60.21;98418.03;10481758;28;20074;-69
2023/11/01 16:24:01;;;;;;;2.05;1.33;;;;;;;13.25;60.28;98404.94;10479732;28;20692;-69
2023/11/01 16:29:04;;;;;;;1.35;0.98;;;;;;;13.21;60.48;98402.78;10481191;28;20036;-69
2023/11/01 16:34:25;;;;;;;1.95;0.70;;;;;;;13.10;60.84;98401.16;10479678;28;20506;-65
2023/11/01 16:39:27;;;;;;;1.30;0.70;;;;;;;12.95;61.01;98405.22;10481846;28;20048;-65
2023/11/01 16:44:29;;;;;;;0.65;0.65;;;;;;;12.78;61.05;98388.41;10479079;28;20040;-65
2023/11/01 16:49:32;;;;;;;2.35;1.10;;;;;;;12.60;61.55;98397.97;10480072;28;20121;-65
2023/11/01 16:54:38;;;;;;;1.90;0.90;;;;;;;12.53;61.62;98391.66;10460368;28;20044;-65
2023/11/01 16:59:58;;;;;;;1.33;0.68;;;;;;;12.54;61.56;98387.22;10478299;28;20460;-65
2023/11/01 17:05:01;;;;;;;2.05;1.10;;;;;;;12.52;61.71;98399.66;10479479;28;20055;-65
2023/11/01 17:10:05;;;;;;;3.08;1.33;;;;;;;12.57;61.45;98387.78;10459317;28;20049;-65
2023/11/01 17:15:08;;;;;;;2.17;1.27;;;;;;;12.56;61.15;98380.88;10459208;28;20201;-65
2023/11/01 17:20:11;;;;;;;2.05;1.10;;;;;;;12.67;61.17;98396.47;10476154;28;20079;-65
2023/11/01 17:25:53;;;;;;;2.05;0.80;;;;;;;12.77;59.98;98378.06;10475147;28;20048;-65
2023/11/01 17:30:56;;;;;;;;;;;;;;;12.77;59.93;98384.16;10469650;28;20396;-65
2023/11/01 17:36:19;;;;;;;1.80;1.20;;;;;;;12.94;60.40;98380.75;10458673;28;19932;-65
2023/11/01 17:41:51;;;;;;;1.58;0.85;;;;;;;13.04;59.99;98383.38;10478335;28;20048;-65
2023/11/01 17:47:03;;;;;;;1.30;0.75;;;;;;;13.09;59.95;98375.06;10472820;28;20051;-65
2023/11/01 17:52:08;;;;;;;1.25;0.63;;;;;;;13.10;60.14;98374.06;10478450;28;20048;-65
2023/11/01 17:57:11;;;;;;;1.85;1.02;;;;;;;13.11;60.20;98370.50;10480798;28;20070;-64
2023/11/01 18:02:31;;;;;;;1.02;0.70;;;;;;;13.01;58.92;98364.44;10486267;28;20047;-66
2023/11/01 18:07:35;;;;;;;1.92;0.80;;;;;;;13.06;58.51;98347.31;10479423;28;20172;-66
2023/11/01 18:12:39;;;;;;;0.90;0.70;;;;;;;13.12;58.27;98346.72;10476666;28;20105;-66
2023/11/01 18:17:41;;;;;;;1.35;0.60;;;;;;;13.21;57.30;98348.44;10476238;28;20064;-65
2023/11/01 18:22:44;;;;;;;1.08;0.80;;;;;;;13.22;56.25;98346.66;10482765;28;20052;-65
2023/11/01 18:27:47;;;;;;;1.25;0.75;;;;;;;13.16;56.05;98350.69;10459379;28;20094;-65
2023/11/01 18:32:48;;;;;;;0.90;0.75;;;;;;;13.19;56.08;98366.16;10475497;28;20056;-65
2023/11/01 18:37:53;;;;;;;0.70;0.70;;;;;;;13.08;55.48;98376.03;10488487;28;20047;-65
2023/11/01 18:42:57;;;;;;;3.85;1.02;;;;;;;13.10;56.96;98376.69;10484134;28;20408;-65
2023/11/01 18:47:59;;;;;;;3.75;0.80;;;;;;;12.73;57.60;98374.91;10483537;28;20178;-66
2023/11/01 18:53:04;;;;;;;2.03;0.90;;;;;;;12.54;58.62;98393.31;10485894;28;20047;-65
2023/11/01 18:58:09;;;;;;;3.25;0.73;;;;;;;12.53;58.25;98383.78;10468343;28;21266;-65
2023/11/01 19:03:18;;;;;;;0.77;0.47;;;;;;;12.35;58.25;98369.75;10501909;28;20082;-65
2023/11/01 19:08:20;;;;;;;1.00;0.60;;;;;;;12.23;58.48;98375.25;10482881;28;20096;-65
2023/11/01 19:13:23;;;;;;;0.50;0.50;;;;;;;12.06;58.83;98388.09;10485938;28;20060;-65
2023/11/01 19:18:25;;;;;;;1.08;0.75;;;;;;;11.94;58.81;98373.47;10483997;28;20743;-66
2023/11/01 19:23:27;;;;;;;0.55;0.55;;;;;;;11.82;58.93;98373.75;10486648;28;20036;-65
2023/11/01 19:28:31;;;;;;;1.38;0.80;;;;;;;11.77;58.98;98362.84;10484695;28;20513;-66
2023/11/01 19:33:33;;;;;;;1.75;1.10;;;;;;;11.69;59.06;98362.69;10483230;28;20090;-65
2023/11/01 19:38:35;;;;;;;1.60;0.88;;;;;;;11.61;59.27;98358.16;10484384;28;20052;-65
2023/11/01 19:43:38;;;;;;;0.65;0.55;;;;;;;11.52;59.39;98360.75;10486710;28;20033;-65
2023/11/01 19:48:40;;;;;;;1.95;0.70;;;;;;;11.44;59.58;98343.09;10486991;28;20098;-65
2023/11/01 19:53:43;;;;;;;0.63;0.55;;;;;;;11.34;59.88;98357.94;10504298;27;20915;-65
2023/11/01 19:58:46;;;;;;;0.55;0.55;;;;;;;11.30;59.84;98352.16;10483729;28;20048;-65
2023/11/01 20:03:48;;;;;;;0.63;0.45;;;;;;;11.31;59.82;98358.22;10494529;28;20052;-65
2023/11/01 20:08:50;;;;;;;0.98;0.50;;;;;;;11.29;59.96;98360.16;10472824;28;20036;-65
2023/11/01 20:13:52;;;;;;;0.93;0.73;;;;;;;11.26;60.06;98365.63;10491782;28;20504;-65
2023/11/01 20:18:54;;;;;;;0.80;0.80;;;;;;;11.36;60.13;98355.22;10487718;28;20090;-64
2023/11/01 20:23:56;;;;;;;0.60;0.60;;;;;;;11.32;59.99;98350.25;10493994;28;20040;-64
2023/11/01 20:28:59;;;;;;;1.30;0.63;;;;;;;11.47;59.75;98360.31;10493771;28;20047;-64
2023/11/01 20:34:01;;;;;;;0.75;0.75;;;;;;;11.42;60.04;98357.28;10494385;28;20043;-64
2023/11/01 20:39:04;;;;;;;0.88;0.70;;;;;;;11.61;59.58;98352.06;10485360;28;20147;-64
2023/11/01 20:44:06;;;;;;;1.10;0.90;;;;;;;11.76;59.76;98342.88;10492462;28;20053;-64
2023/11/01 20:49:09;;;;;;;1.52;1.05;;;;;;;11.76;59.68;98330.59;10484101;28;20044;-64
2023/11/01 20:54:12;;;;;;;0.60;0.60;;;;;;;11.78;59.65;98330.47;10494679;28;20048;-64
2023/11/01 20:59:14;;;;;;;1.13;0.93;;;;;;;11.85;59.83;98307.97;10494160;28;20132;-65
2023/11/01 21:04:16;;;;;;;1.90;1.08;;;;;;;11.80;59.70;98303.16;10488418;28;20047;-64
2023/11/01 21:09:18;;;;;;;0.80;0.70;;;;;;;11.90;59.97;98297.91;10496943;28;20412;-64
2023/11/01 21:14:21;;;;;;;1.00;0.80;;;;;;;11.80;59.94;98287.44;10496178;28;20056;-64
2023/11/01 21:19:23;;;;;;;2.58;0.70;;;;;;;11.83;59.97;98287.16;10484438;28;20056;-64
2023/11/01 21:24:25;;;;;;;2.00;0.88;;;;;;;11.87;59.80;98277.22;10483227;28;20058;-65
2023/11/01 21:29:27;;;;;;;2.40;1.10;;;;;;;11.89;59.62;98268.25;10486719;28;20047;-65
2023/11/01 21:34:29;;;;;;;2.22;1.10;;;;;;;11.98;59.76;98261.38;10481952;28;20584;-64
2023/11/01 21:39:31;;;;;;;0.77;0.70;;;;;;;11.90;59.67;98248.97;10482199;28;20044;-64
2023/11/01 21:44:38;;;;;;;0.68;0.60;;;;;;;11.85;59.62;98245.94;10483074;28;20842;-64
2023/11/01 21:49:41;;;;;;;2.10;0.85;;;;;;;11.87;59.62;98227.44;10479277;28;20054;-64
2023/11/01 21:54:43;;;;;;;1.30;1.20;;;;;;;11.87;59.47;98222.22;10475598;28;20045;-64
2023/11/01 21:59:45;;;;;;;4.22;1.10;;;;;;;11.80;59.36;98210.66;10475850;28;20385;-64
2023/11/01 22:04:50;;;;;;;0.65;0.52;;;;;;;11.82;59.25;98206.09;10474465;28;20044;-63
2023/11/01 22:09:55;;;;;;;1.15;1.08;;;;;;;11.91;59.31;98202.63;10474399;28;20067;-64
2023/11/01 22:14:57;;;;;;;1.55;0.77;;;;;;;11.94;59.08;98189.25;10478246;28;20049;-65
2023/11/01 22:19:59;;;;;;;1.15;0.90;;;;;;;11.92;58.99;98191.19;10477986;28;20413;-64
2023/11/01 22:25:06;;;;;;;0.98;0.68;;;;;;;11.83;59.23;98184.16;10476489;28;20040;-64
2023/11/01 22:30:09;;;;;;;2.90;0.98;;;;;;;11.87;59.29;98185.53;10490753;28;20106;-65
2023/11/01 22:35:15;;;;;;;0.40;0.40;;;;;;;11.93;59.02;98171.88;10481492;28;20044;-65
2023/11/01 22:40:17;;;;;;;4.20;0.70;;;;;;;11.85;59.63;98164.72;10485237;28;20569;-64
2023/11/01 22:45:19;;;;;;;0.70;0.68;;;;;;;11.76;59.62;98159.53;10475182;28;20052;-65
2023/11/01 22:50:20;;;;;;;0.73;0.70;;;;;;;11.70;59.47;98149.63;10483789;28;20049;-65
2023/11/01 22:55:22;;;;;;;2.15;0.90;;;;;;;11.76;59.53;98138.59;10481630;28;20144;-63
2023/11/01 23:00:42;;;;;;;4.50;1.20;;;;;;;11.72;59.89;98131.97;10470273;28;20051;-65
2023/11/01 23:05:45;;;;;;;1.80;0.80;;;;;;;11.73;59.99;98128.38;10483335;28;20097;-63
2023/11/01 23:10:48;;;;;;;0.73;0.73;;;;;;;11.71;59.95;98111.97;10475526;28;20514;-64
2023/11/01 23:15:52;;;;;;;0.68;0.68;;;;;;;11.72;60.23;98097.94;10475704;28;20052;-64
2023/11/01 23:20:56;;;;;;;1.80;1.08;;;;;;;11.67;60.24;98076.56;10476700;28;20074;-64
2023/11/01 23:25:58;;;;;;;3.22;0.85;;;;;;;11.62;60.36;98079.63;10482602;28;20062;-64
2023/11/01 23:31:00;;;;;;;1.35;0.60;;;;;;;11.59;60.43;98058.97;10484049;28;20123;-65
2023/11/01 23:36:03;;;;;;;0.70;0.70;;;;;;;11.59;60.52;98068.63;10481839;28;20052;-64
2023/11/01 23:41:35;;;;;;;0.50;0.50;;;;;;;11.38;60.86;98054.91;10480906;28;20055;-64